Hovedside
METAR-TAF:

METAR-TAF

Lufthavner :

Tozeur, Tunisia

breddegrad: 33-55N, lengdegrad: 008-06E, høyde over havet: 87 m

Gjeldene værobservasjon

Denne rapporten ble laget for 23 minutter siden, klokken 04:00 UTC
Vind 9 kt fra Vest
Temperatur 7°C
Luftfuktighet 53%
Trykk 1027 hPa
Sikt 10 km eller mer
ingen skyer under 1500 m og ingen bygeskyer

METAR: DTTZ 290400Z 28009KT CAVOK 07/M02 Q1027

Tid: 05:23 (04:23 UTC)

Varsel

Denne rapporten ble laget for 5 timer og 23 minutter siden, klokken 23:00 UTC
Varsel gyldig fra 29. klokken 00 UTC til 29. klokken 24 UTC
Vind 10 kt fra Vest
Sikt 10 km eller mer
ingen skyer under 1500 m og ingen bygeskyer
Blir
fra 29. klokken 04 UTC til 29. klokken 06 UTC
Vind 3 kt fra skiftende retning

TAF: DTTZ 282300Z 2900/2924 26010KT CAVOK BECMG 2904/2906 VRB03KT

Værobservasjoner og værvarsel for over 4000 flyplasser (METAR- og TAF-rapporter).

Tilgjengelige stasjoner er representert av de røde og gule prikkene på kartet.

Hold musepekeren over prikken for å se navnet på stasjonen.

Klikk så for å se værobservasjoner og -varsler.

For å forandre kartet kan du klikke på den grønne knappen med svart kryss for å zoome inn, på den grønne knappen med strek for å zoome ut, eller på de grønne pilene for å se tilstøtende kart.


METAR-TAF: